TAF and METAR

METAR for Bata Airport

FGBT 011300Z 23004KT 200V260 9999 TS SCT010 FEW020CB 30/26 Q1009
Report created 1. apr 15:00
wind 4 knots from SW (230°) Wind direction varies from SSW to W visibility > 10km thunderstorm scattered clouds (~50% cover) at 1000 feet some clouds (~25% cover) at 2000 feet of type cumulonimbus Temperature 30° with dewpoint at 26° (Humidity 79.25%) Pressure 1009 hPa

TAF for Bata Airport

TAF FGBT 011100Z 0112/0212 22006KT 9999 SCT012 FEW020CB TEMPO 0115/0119 TS TEMPO 0119/0204 TS BKN010 FEW020CB
Report created 1. apr 13:00

between 1. apr 14:00 - 2. apr 14:00

wind 6 knots from SW (220°) visibility > 10km scattered clouds (~50% cover) at 1200 feet some clouds (~25% cover) at 2000 feet of type cumulonimbus

temporarily between 1. apr 17:00 - 1. apr 21:00

thunderstorm

temporarily between 1. apr 21:00 - 2. apr 06:00

thunderstorm broken clouds (~75% cover) at 1000 feet some clouds (~25% cover) at 2000 feet of type cumulonimbus